createdAt,value
2023-01-29T00:00:10.527Z,21.90
2023-01-29T00:02:40.464Z,22.60
2023-01-29T00:05:26.626Z,20.10
2023-01-29T00:07:58.158Z,18.23
2023-01-29T00:10:26.259Z,20.30
2023-01-29T00:12:53.339Z,20.93
2023-01-29T00:15:20.856Z,21.53
2023-01-29T00:17:47.867Z,18.50
2023-01-29T00:20:15.990Z,22.23
2023-01-29T00:22:43.418Z,20.93
2023-01-29T00:25:12.067Z,21.93
2023-01-29T00:27:38.992Z,22.57
2023-01-29T00:30:12.813Z,22.97
2023-01-29T00:32:40.838Z,20.83
2023-01-29T00:35:09.502Z,19.90
2023-01-29T00:37:37.475Z,21.53
2023-01-29T00:40:05.944Z,20.03
2023-01-29T00:42:53.938Z,20.80
2023-01-29T00:45:21.123Z,22.80
2023-01-29T00:47:50.697Z,23.17
2023-01-29T00:50:19.893Z,20.83
2023-01-29T00:52:48.647Z,20.73
2023-01-29T00:55:25.290Z,18.23
2023-01-29T00:57:52.505Z,21.13
2023-01-29T01:00:23.443Z,20.33
2023-01-29T01:03:06.581Z,21.43
2023-01-29T01:05:34.533Z,22.30
2023-01-29T01:08:01.534Z,20.73
2023-01-29T01:10:32.975Z,21.03
2023-01-29T01:13:07.341Z,21.57
2023-01-29T01:15:40.616Z,22.47
2023-01-29T01:18:07.930Z,20.73
2023-01-29T01:20:36.491Z,21.70
2023-01-29T01:23:05.879Z,19.77
2023-01-29T01:25:32.996Z,19.30
2023-01-29T01:30:27.753Z,20.33
2023-01-29T01:32:56.105Z,20.73
2023-01-29T01:35:23.065Z,19.87
2023-01-29T01:37:50.251Z,21.63
2023-01-29T01:40:22.359Z,23.27
2023-01-29T01:42:58.042Z,22.53
2023-01-29T01:45:33.163Z,24.57
2023-01-29T01:48:02.912Z,22.23
2023-01-29T01:50:58.771Z,22.50
2023-01-29T01:53:38.469Z,24.47
2023-01-29T01:56:16.126Z,23.63
2023-01-29T01:58:51.413Z,20.33
2023-01-29T02:01:26.536Z,23.40
2023-01-29T02:04:26.481Z,24.77
2023-01-29T02:07:14.524Z,21.17
2023-01-29T02:09:52.572Z,24.17
2023-01-29T02:12:21.721Z,22.07
2023-01-29T02:14:52.646Z,26.60
2023-01-29T02:17:20.738Z,25.93
2023-01-29T02:20:19.190Z,26.23
2023-01-29T02:23:14.211Z,24.83
2023-01-29T02:26:33.715Z,24.97
2023-01-29T02:29:44.897Z,25.37
2023-01-29T02:32:41.370Z,22.83
2023-01-29T02:35:30.575Z,24.77
2023-01-29T02:38:28.617Z,25.03
2023-01-29T02:41:11.208Z,25.83
2023-01-29T02:43:51.040Z,26.07
2023-01-29T02:46:36.994Z,26.63
2023-01-29T02:49:29.892Z,25.17
2023-01-29T02:52:16.721Z,23.17
2023-01-29T02:55:17.566Z,24.40
2023-01-29T02:57:52.004Z,23.80
2023-01-29T03:00:28.025Z,25.30
2023-01-29T03:03:17.804Z,25.60
2023-01-29T03:06:06.527Z,30.03
2023-01-29T03:08:45.831Z,25.47
2023-01-29T03:11:17.501Z,25.50
2023-01-29T03:13:55.400Z,26.10
2023-01-29T03:16:28.411Z,24.60
2023-01-29T03:19:04.555Z,24.63
2023-01-29T03:21:58.935Z,25.67
2023-01-29T03:25:15.645Z,25.83
2023-01-29T03:28:18.002Z,25.97
2023-01-29T03:31:21.589Z,26.17
2023-01-29T03:34:10.059Z,24.13
2023-01-29T03:36:51.086Z,23.40
2023-01-29T03:39:18.269Z,23.93
2023-01-29T03:42:18.768Z,26.23
2023-01-29T03:44:54.546Z,23.53
2023-01-29T03:48:30.276Z,24.77
2023-01-29T03:51:15.585Z,23.50
2023-01-29T03:54:17.788Z,22.63
2023-01-29T03:56:57.404Z,24.87
2023-01-29T03:59:44.708Z,22.60
2023-01-29T04:02:31.211Z,22.60
2023-01-29T04:05:16.910Z,22.70
2023-01-29T04:08:13.012Z,23.87
2023-01-29T04:10:44.942Z,21.37
2023-01-29T04:13:15.744Z,22.43
2023-01-29T04:15:57.796Z,23.33
2023-01-29T04:18:49.246Z,23.07
2023-01-29T04:21:19.183Z,21.87
2023-01-29T04:23:46.154Z,22.67
2023-01-29T04:26:42.965Z,22.40
2023-01-29T04:29:45.720Z,24.43
2023-01-29T04:32:13.854Z,21.83
2023-01-29T04:34:54.184Z,21.87
2023-01-29T04:38:06.411Z,23.50
2023-01-29T04:41:13.829Z,23.30
2023-01-29T04:44:17.112Z,20.37
2023-01-29T04:47:02.684Z,20.27
2023-01-29T04:50:11.724Z,20.27
2023-01-29T04:52:50.096Z,19.43
2023-01-29T04:55:30.187Z,20.63
2023-01-29T04:58:14.566Z,20.87
2023-01-29T05:00:45.512Z,22.07
2023-01-29T05:03:16.288Z,23.07
2023-01-29T05:05:48.926Z,23.90
2023-01-29T05:08:21.140Z,23.63
2023-01-29T05:10:51.462Z,23.53
2023-01-29T05:13:22.155Z,25.77
2023-01-29T05:15:57.789Z,23.63
2023-01-29T05:18:24.873Z,24.10
2023-01-29T05:20:55.542Z,24.83
2023-01-29T05:23:23.929Z,24.37
2023-01-29T05:25:52.679Z,27.87
2023-01-29T05:28:19.689Z,25.63
2023-01-29T05:30:50.973Z,25.57
2023-01-29T05:33:30.676Z,27.53
2023-01-29T05:36:00.561Z,22.77
2023-01-29T05:38:27.808Z,23.87
2023-01-29T05:40:54.812Z,22.77
2023-01-29T05:43:25.104Z,23.20
2023-01-29T05:45:59.919Z,27.10
2023-01-29T05:48:31.323Z,24.93
2023-01-29T05:51:02.696Z,25.43
2023-01-29T05:53:31.593Z,24.30
2023-01-29T05:56:02.321Z,26.47
2023-01-29T05:58:31.962Z,27.20
2023-01-29T06:00:58.905Z,23.77
2023-01-29T06:03:25.767Z,26.00
2023-01-29T06:05:52.687Z,26.20
2023-01-29T06:08:19.861Z,28.83
2023-01-29T06:10:46.881Z,26.47
2023-01-29T06:13:13.877Z,26.30
2023-01-29T06:15:41.083Z,28.37
2023-01-29T06:18:08.313Z,26.20
2023-01-29T06:20:35.513Z,27.27
2023-01-29T06:23:02.467Z,26.67
2023-01-29T06:25:29.442Z,27.13
2023-01-29T06:27:59.332Z,27.90
2023-01-29T06:30:28.142Z,26.13
2023-01-29T06:33:00.319Z,28.83
2023-01-29T06:35:27.480Z,25.87
2023-01-29T06:37:54.755Z,27.43
2023-01-29T06:40:21.717Z,26.77
2023-01-29T06:42:48.687Z,28.20
2023-01-29T06:45:15.647Z,28.73
2023-01-29T06:47:42.537Z,29.67
2023-01-29T06:50:10.617Z,28.63
2023-01-29T06:52:37.465Z,28.57
2023-01-29T06:55:04.901Z,28.87
2023-01-29T06:57:31.837Z,28.83
2023-01-29T06:59:59.593Z,27.07
2023-01-29T07:02:26.623Z,31.57
2023-01-29T07:04:53.610Z,26.63
2023-01-29T07:07:20.525Z,27.13
2023-01-29T07:09:47.573Z,28.83
2023-01-29T07:12:14.466Z,31.20
2023-01-29T07:14:41.399Z,28.37
2023-01-29T07:17:08.283Z,28.17
2023-01-29T07:19:35.197Z,27.50
2023-01-29T07:22:03.915Z,27.83
2023-01-29T07:24:31.237Z,26.93
2023-01-29T07:26:58.445Z,28.00
2023-01-29T07:29:25.440Z,26.30
2023-01-29T07:31:52.637Z,27.23
2023-01-29T07:34:19.622Z,27.10
2023-01-29T07:36:46.553Z,25.57
2023-01-29T07:39:13.490Z,26.67
2023-01-29T07:41:40.827Z,28.00
2023-01-29T07:44:16.241Z,26.53
2023-01-29T07:46:43.375Z,29.33
2023-01-29T07:49:10.376Z,27.77
2023-01-29T07:51:37.306Z,27.23
2023-01-29T07:54:04.330Z,30.07
2023-01-29T07:56:31.348Z,30.90
2023-01-29T07:58:58.293Z,29.40
2023-01-29T08:01:25.301Z,27.90
2023-01-29T08:03:52.393Z,30.37
2023-01-29T08:06:19.651Z,28.70
2023-01-29T08:08:46.648Z,28.70
2023-01-29T08:11:13.702Z,29.77
2023-01-29T08:13:40.700Z,29.73
2023-01-29T08:16:09.005Z,27.53
2023-01-29T08:18:38.105Z,28.53
2023-01-29T08:21:06.042Z,27.10
2023-01-29T08:23:32.935Z,29.17
2023-01-29T08:26:01.950Z,28.07
2023-01-29T08:28:29.041Z,29.77
2023-01-29T08:30:56.104Z,25.47
2023-01-29T08:33:30.031Z,27.33
2023-01-29T08:36:05.713Z,26.63
2023-01-29T08:38:32.649Z,27.20
2023-01-29T08:40:59.514Z,29.00
2023-01-29T08:43:26.383Z,28.30
2023-01-29T08:45:53.476Z,26.53
2023-01-29T08:48:20.562Z,26.60
2023-01-29T08:50:47.567Z,27.37
2023-01-29T08:53:14.484Z,26.27
2023-01-29T08:55:41.612Z,28.60
2023-01-29T08:58:11.613Z,28.00
2023-01-29T09:00:39.235Z,26.53
2023-01-29T09:03:07.811Z,26.37
2023-01-29T09:05:40.396Z,26.80
2023-01-29T09:08:09.451Z,27.73
2023-01-29T09:10:36.893Z,26.90
2023-01-29T09:13:04.870Z,25.93
2023-01-29T09:15:32.099Z,24.63
2023-01-29T09:18:03.765Z,27.63
2023-01-29T09:20:30.904Z,25.70
2023-01-29T09:22:59.164Z,27.63
2023-01-29T09:25:26.235Z,27.20
2023-01-29T09:27:54.788Z,27.53
2023-01-29T09:30:21.966Z,26.40
2023-01-29T09:32:53.537Z,29.73
2023-01-29T09:35:23.451Z,26.27
2023-01-29T09:37:51.857Z,26.27
2023-01-29T09:40:26.965Z,29.20
2023-01-29T09:43:07.179Z,27.17
2023-01-29T09:45:36.776Z,28.97
2023-01-29T09:48:05.852Z,26.57
2023-01-29T09:50:41.745Z,26.40
2023-01-29T09:53:23.899Z,26.87
2023-01-29T09:56:03.456Z,28.03
2023-01-29T09:58:43.376Z,27.67
2023-01-29T10:01:21.781Z,29.03
2023-01-29T10:04:02.425Z,27.47
2023-01-29T10:06:50.895Z,26.10
2023-01-29T10:09:45.943Z,28.43
2023-01-29T10:12:56.043Z,26.73
2023-01-29T10:15:46.261Z,27.60
2023-01-29T10:18:37.708Z,23.30
2023-01-29T10:21:47.922Z,24.77
2023-01-29T10:24:17.906Z,24.47
2023-01-29T10:26:44.966Z,23.97
2023-01-29T10:29:19.868Z,23.60
2023-01-29T10:31:56.938Z,24.07
2023-01-29T10:35:20.619Z,21.23
2023-01-29T10:37:48.667Z,22.80
2023-01-29T10:40:21.883Z,22.70
2023-01-29T10:43:08.823Z,21.43
2023-01-29T10:46:05.213Z,21.80
2023-01-29T10:49:03.859Z,22.77
2023-01-29T10:51:49.770Z,22.80
2023-01-29T10:54:43.106Z,22.80
2023-01-29T10:57:26.836Z,24.00
2023-01-29T11:00:16.137Z,21.80
2023-01-29T11:02:50.275Z,21.93
2023-01-29T11:05:35.001Z,22.10
2023-01-29T11:08:18.174Z,22.40
2023-01-29T11:10:59.937Z,20.33
2023-01-29T11:13:35.107Z,19.37
2023-01-29T11:16:05.786Z,22.17
2023-01-29T11:18:58.159Z,21.13
2023-01-29T11:21:27.405Z,20.20
2023-01-29T11:24:15.365Z,21.97
2023-01-29T11:26:44.473Z,18.20
2023-01-29T11:29:46.794Z,21.33
2023-01-29T11:32:22.466Z,20.17
2023-01-29T11:35:19.742Z,21.03
2023-01-29T11:37:47.926Z,21.03
2023-01-29T11:40:35.296Z,21.10
2023-01-29T11:43:28.066Z,23.33
2023-01-29T11:46:01.545Z,22.40
2023-01-29T11:48:59.089Z,21.07
2023-01-29T11:51:29.951Z,23.43
2023-01-29T11:54:02.854Z,19.43
2023-01-29T11:56:41.248Z,23.37
2023-01-29T11:59:48.974Z,22.73
2023-01-29T12:02:36.150Z,21.80
2023-01-29T12:05:20.299Z,23.10
2023-01-29T12:07:51.860Z,24.20
2023-01-29T12:10:41.009Z,21.30
2023-01-29T12:13:28.695Z,20.70
2023-01-29T12:16:25.587Z,20.43
2023-01-29T12:19:14.336Z,20.43
2023-01-29T12:22:04.123Z,19.47
2023-01-29T12:24:42.061Z,20.63
2023-01-29T12:27:20.782Z,20.50
2023-01-29T12:30:15.857Z,19.93
2023-01-29T12:32:56.633Z,18.93
2023-01-29T12:35:30.644Z,17.60
2023-01-29T12:38:10.549Z,20.60
2023-01-29T12:41:07.691Z,19.87
2023-01-29T12:44:21.005Z,18.17
2023-01-29T12:46:55.500Z,19.27
2023-01-29T12:49:33.288Z,19.47
2023-01-29T12:52:13.653Z,20.63
2023-01-29T12:54:52.262Z,19.10
2023-01-29T12:57:57.302Z,18.70
2023-01-29T13:00:30.632Z,20.47
2023-01-29T13:03:24.823Z,22.93
2023-01-29T13:05:58.075Z,22.80
2023-01-29T13:08:53.950Z,23.83
2023-01-29T13:11:34.059Z,20.97
2023-01-29T13:14:46.523Z,21.53
2023-01-29T13:17:47.956Z,22.23
2023-01-29T13:20:24.144Z,21.50
2023-01-29T13:22:56.413Z,20.97
2023-01-29T13:25:23.465Z,21.27
2023-01-29T13:27:51.577Z,22.30
2023-01-29T13:30:25.415Z,22.10
2023-01-29T13:32:55.118Z,22.93
2023-01-29T13:35:23.934Z,24.23
2023-01-29T13:37:55.404Z,23.97
2023-01-29T13:40:28.790Z,23.73
2023-01-29T13:43:00.216Z,22.80
2023-01-29T13:45:43.400Z,22.17
2023-01-29T13:48:27.402Z,21.37
2023-01-29T13:51:03.320Z,23.13
2023-01-29T13:53:41.807Z,22.40
2023-01-29T13:56:33.524Z,18.87
2023-01-29T13:59:03.041Z,22.83
2023-01-29T14:01:49.306Z,22.20
2023-01-29T14:04:19.024Z,23.23
2023-01-29T14:06:50.860Z,22.50
2023-01-29T14:09:39.578Z,21.80
2023-01-29T14:12:21.780Z,22.13
2023-01-29T14:14:48.671Z,23.43
2023-01-29T14:17:17.733Z,23.23
2023-01-29T14:19:52.177Z,24.90
2023-01-29T14:22:27.545Z,21.87
2023-01-29T14:25:01.807Z,21.90
2023-01-29T14:27:30.273Z,23.20
2023-01-29T14:30:09.969Z,20.93
2023-01-29T14:32:40.667Z,24.07
2023-01-29T14:35:21.298Z,21.60
2023-01-29T14:37:53.300Z,21.73
2023-01-29T14:40:20.387Z,22.27
2023-01-29T14:43:20.080Z,22.67
2023-01-29T14:45:49.544Z,21.60
2023-01-29T14:48:35.327Z,20.93
2023-01-29T14:51:16.695Z,20.77
2023-01-29T14:54:12.027Z,22.03
2023-01-29T14:57:02.437Z,20.23
2023-01-29T14:59:49.276Z,21.73
2023-01-29T15:02:38.862Z,19.97
2023-01-29T15:05:16.738Z,20.63
2023-01-29T15:07:57.432Z,22.53
2023-01-29T15:10:42.550Z,20.77
2023-01-29T15:13:37.355Z,21.73
2023-01-29T15:16:20.997Z,18.53
2023-01-29T15:18:54.881Z,20.60
2023-01-29T15:21:21.872Z,20.43
2023-01-29T15:24:04.761Z,21.63
2023-01-29T15:26:33.354Z,19.37
2023-01-29T15:29:04.573Z,20.67
2023-01-29T15:31:33.001Z,19.40
2023-01-29T15:34:07.501Z,20.97
2023-01-29T15:36:37.094Z,21.27
2023-01-29T15:39:19.629Z,18.40
2023-01-29T15:41:47.105Z,20.23
2023-01-29T15:44:23.726Z,19.60
2023-01-29T15:46:59.221Z,19.17
2023-01-29T15:49:36.372Z,19.90
2023-01-29T15:52:16.106Z,20.77
2023-01-29T15:54:44.420Z,20.50
2023-01-29T15:57:37.572Z,17.63
2023-01-29T16:00:07.795Z,21.20
2023-01-29T16:02:42.067Z,20.37
2023-01-29T16:05:17.619Z,18.50
2023-01-29T16:07:46.300Z,18.60
2023-01-29T16:10:28.141Z,18.80
2023-01-29T16:12:55.859Z,21.30
2023-01-29T16:15:32.663Z,17.87
2023-01-29T16:18:02.564Z,19.90
2023-01-29T16:20:47.279Z,21.30
2023-01-29T16:23:36.793Z,20.47
2023-01-29T16:26:08.910Z,20.43
2023-01-29T16:28:47.225Z,20.17
2023-01-29T16:31:25.712Z,20.17
2023-01-29T16:33:53.911Z,19.07
2023-01-29T16:36:25.601Z,24.47
2023-01-29T16:39:05.437Z,20.77
2023-01-29T16:41:38.264Z,19.53
2023-01-29T16:44:20.295Z,20.57
2023-01-29T16:46:51.393Z,19.43
2023-01-29T16:49:30.350Z,20.40
2023-01-29T16:52:25.731Z,20.37
2023-01-29T16:55:00.522Z,19.13
2023-01-29T16:57:33.273Z,22.27
2023-01-29T17:00:06.452Z,21.67
2023-01-29T17:02:38.954Z,18.13
2023-01-29T17:05:20.017Z,19.97
2023-01-29T17:07:47.611Z,18.73
2023-01-29T17:10:20.335Z,17.17
2023-01-29T17:13:18.239Z,17.97
2023-01-29T17:15:47.751Z,18.63
2023-01-29T17:18:22.500Z,20.00
2023-01-29T17:20:50.803Z,20.60
2023-01-29T17:23:17.697Z,19.03
2023-01-29T17:25:46.876Z,17.23
2023-01-29T17:28:17.061Z,17.17
2023-01-29T17:30:56.579Z,22.07
2023-01-29T17:33:32.033Z,18.43
2023-01-29T17:35:58.955Z,18.90
2023-01-29T17:38:26.872Z,19.07
2023-01-29T17:41:13.435Z,17.80
2023-01-29T17:43:40.553Z,18.00
2023-01-29T17:46:14.523Z,17.87
2023-01-29T17:48:41.976Z,15.73
2023-01-29T17:51:17.570Z,17.10
2023-01-29T17:53:46.990Z,19.07
2023-01-29T17:56:24.080Z,17.00
2023-01-29T17:58:51.271Z,18.43
2023-01-29T18:01:18.193Z,15.60
2023-01-29T18:03:45.271Z,18.17
2023-01-29T18:06:29.906Z,18.23
2023-01-29T18:08:58.713Z,18.33
2023-01-29T18:11:26.104Z,20.73
2023-01-29T18:13:54.832Z,16.10
2023-01-29T18:16:23.074Z,19.10
2023-01-29T18:18:51.805Z,18.63
2023-01-29T18:21:19.372Z,20.17
2023-01-29T18:23:46.337Z,19.63
2023-01-29T18:26:16.393Z,16.77
2023-01-29T18:28:43.734Z,18.33
2023-01-29T18:31:12.998Z,20.63
2023-01-29T18:33:40.695Z,18.87
2023-01-29T18:36:08.513Z,20.13
2023-01-29T18:38:36.242Z,24.03
2023-01-29T18:41:11.953Z,19.17
2023-01-29T18:43:41.750Z,20.30
2023-01-29T18:46:09.335Z,20.20
2023-01-29T18:48:36.303Z,19.23
2023-01-29T18:51:04.368Z,18.83
2023-01-29T18:53:33.343Z,21.23
2023-01-29T18:56:07.066Z,21.57
2023-01-29T18:58:38.409Z,18.83
2023-01-29T19:01:12.201Z,20.17
2023-01-29T19:03:41.886Z,23.43
2023-01-29T19:06:11.784Z,18.67
2023-01-29T19:08:40.570Z,20.57
2023-01-29T19:11:09.114Z,21.20
2023-01-29T19:13:38.105Z,22.67
2023-01-29T19:16:10.123Z,19.67
2023-01-29T19:18:37.625Z,21.87
2023-01-29T19:21:11.816Z,22.53
2023-01-29T19:23:40.155Z,24.07
2023-01-29T19:26:07.962Z,21.73
2023-01-29T19:28:35.417Z,21.27
2023-01-29T19:31:02.968Z,21.70
2023-01-29T19:33:30.051Z,22.10
2023-01-29T19:35:58.699Z,21.83
2023-01-29T19:38:26.669Z,23.73
2023-01-29T19:40:55.217Z,23.27
2023-01-29T19:43:22.236Z,24.87
2023-01-29T19:45:50.927Z,24.93
2023-01-29T19:48:22.066Z,24.73
2023-01-29T19:50:59.042Z,25.10
2023-01-29T19:53:28.984Z,26.73
2023-01-29T19:56:08.194Z,24.93
2023-01-29T19:58:36.215Z,23.80
2023-01-29T20:01:16.837Z,21.73
2023-01-29T20:03:46.746Z,22.33
2023-01-29T20:06:18.846Z,24.17
2023-01-29T20:08:46.681Z,24.00
2023-01-29T20:11:15.507Z,21.30
2023-01-29T20:13:43.621Z,24.53
2023-01-29T20:16:10.691Z,28.80
2023-01-29T20:18:37.701Z,29.43
2023-01-29T20:21:12.698Z,25.87
2023-01-29T20:23:40.686Z,22.53
2023-01-29T20:26:12.156Z,27.17
2023-01-29T20:28:40.842Z,24.13
2023-01-29T20:31:09.527Z,26.47
2023-01-29T20:33:39.541Z,24.83
2023-01-29T20:36:10.254Z,23.87
2023-01-29T20:38:37.708Z,24.10
2023-01-29T20:41:18.459Z,24.30
2023-01-29T20:43:47.306Z,25.57
2023-01-29T20:46:14.548Z,23.73
2023-01-29T20:48:42.227Z,24.90
2023-01-29T20:51:15.379Z,26.37
2023-01-29T20:53:46.015Z,26.37
2023-01-29T20:56:16.282Z,25.10
2023-01-29T20:58:44.056Z,25.20
2023-01-29T21:01:20.610Z,25.40
2023-01-29T21:03:48.362Z,27.40
2023-01-29T21:06:16.346Z,26.03
2023-01-29T21:08:43.498Z,25.37
2023-01-29T21:11:11.138Z,24.20
2023-01-29T21:13:38.624Z,24.23
2023-01-29T21:16:06.395Z,23.17
2023-01-29T21:18:33.508Z,26.80
2023-01-29T21:21:00.423Z,24.80
2023-01-29T21:23:27.545Z,26.90
2023-01-29T21:26:00.191Z,23.63
2023-01-29T21:28:27.233Z,27.80
2023-01-29T21:31:07.950Z,24.73
2023-01-29T21:33:35.228Z,24.33
2023-01-29T21:36:02.913Z,30.33
2023-01-29T21:38:30.756Z,25.23
2023-01-29T21:41:07.233Z,25.73
2023-01-29T21:43:34.460Z,27.80
2023-01-29T21:46:05.104Z,25.97
2023-01-29T21:48:33.189Z,24.80
2023-01-29T21:51:00.145Z,24.93
2023-01-29T21:53:27.095Z,26.33
2023-01-29T21:56:03.048Z,25.63
2023-01-29T21:58:30.436Z,26.17
2023-01-29T22:01:35.926Z,25.93
2023-01-29T22:03:47.244Z,24.73
2023-01-29T22:06:15.140Z,25.40
2023-01-29T22:08:42.154Z,25.40
2023-01-29T22:11:09.701Z,26.47
2023-01-29T22:13:37.069Z,25.87
2023-01-29T22:16:05.970Z,25.83
2023-01-29T22:18:33.815Z,25.97
2023-01-29T22:21:04.456Z,27.80
2023-01-29T22:23:32.655Z,27.00
2023-01-29T22:26:07.502Z,26.70
2023-01-29T22:28:34.673Z,26.43
2023-01-29T22:31:05.829Z,25.93
2023-01-29T22:33:34.197Z,25.77
2023-01-29T22:36:01.875Z,29.47
2023-01-29T22:38:29.268Z,29.37
2023-01-29T22:40:57.759Z,26.23
2023-01-29T22:43:25.996Z,27.47
2023-01-29T22:45:53.303Z,26.80
2023-01-29T22:48:23.111Z,25.47
2023-01-29T22:51:09.581Z,27.00
2023-01-29T22:53:51.677Z,26.47
2023-01-29T22:56:21.483Z,24.90
2023-01-29T22:58:54.040Z,26.30
2023-01-29T23:01:24.825Z,26.87
2023-01-29T23:03:52.295Z,25.30
2023-01-29T23:06:21.822Z,30.90
2023-01-29T23:08:51.389Z,31.17
2023-01-29T23:11:21.609Z,26.07
2023-01-29T23:13:55.195Z,25.90
2023-01-29T23:16:27.666Z,26.97
2023-01-29T23:18:56.469Z,26.97
2023-01-29T23:21:25.282Z,24.10
2023-01-29T23:23:53.014Z,25.37
2023-01-29T23:26:38.173Z,27.43
2023-01-29T23:29:05.533Z,28.07
2023-01-29T23:31:32.657Z,26.17
2023-01-29T23:33:59.937Z,24.43
2023-01-29T23:36:27.572Z,26.20
2023-01-29T23:38:54.645Z,26.43
2023-01-29T23:41:21.877Z,27.93
2023-01-29T23:43:49.191Z,23.90
2023-01-29T23:46:16.169Z,21.30
2023-01-29T23:48:43.201Z,23.07
2023-01-29T23:51:10.943Z,23.93
2023-01-29T23:53:38.724Z,23.77
2023-01-29T23:56:06.807Z,22.90
2023-01-29T23:58:34.254Z,22.37
